Time;durP1;ratioP1;P1;durP2;ratioP2;P2;SDS_P1;SDS_P2;PMS_P1;PMS_P2;Temp;Humidity;BMP_temperature;BMP_pressure;BME280_temperature;BME280_humidity;BME280_pressure;Samples;Min_cycle;Max_cycle;Signal;HPM_P1;HPM_P2
2024/01/31 05:37:30;;;;;;;36.60;18.10;;;;;;;-3.02;100.00;101831.73;109628;1272;22506;-47
2024/01/31 05:39:58;;;;;;;30.40;16.20;;;;;;;-3.06;100.00;101829.70;109899;1280;22387;-51
2024/01/31 05:42:25;;;;;;;38.30;19.10;;;;;;;-3.13;100.00;101829.34;109954;1273;22371;-47
2024/01/31 05:44:53;;;;;;;31.50;15.80;;;;;;;-3.19;100.00;101825.89;110025;1272;22377;-51
2024/01/31 05:47:21;;;;;;;37.60;17.60;;;;;;;-3.27;100.00;101832.53;109940;1280;22941;-52
2024/01/31 05:49:48;;;;;;;38.30;20.80;;;;;;;-3.32;100.00;101832.41;109964;1280;22387;-51
2024/01/31 05:52:16;;;;;;;35.80;19.00;;;;;;;-3.34;100.00;101835.50;109967;1273;22379;-52
2024/01/31 05:54:43;;;;;;;34.40;17.60;;;;;;;-3.34;100.00;101843.02;107941;1281;22536;-48
2024/01/31 05:57:11;;;;;;;36.40;18.10;;;;;;;-3.29;100.00;101852.14;107142;1280;22546;-46
2024/01/31 05:59:40;;;;;;;40.40;20.20;;;;;;;-3.21;100.00;101854.66;107674;1264;24394;-51
2024/01/31 06:02:08;;;;;;;37.40;19.00;;;;;;;-3.10;100.00;101859.27;108411;1276;25288;-48
2024/01/31 06:04:36;;;;;;;46.70;22.80;;;;;;;-3.00;100.00;101864.01;108249;1280;22549;-52
2024/01/31 06:07:04;;;;;;;42.00;22.90;;;;;;;-2.90;100.00;101869.17;108333;1265;22273;-47
2024/01/31 06:09:31;;;;;;;39.90;19.30;;;;;;;-2.78;100.00;101866.73;109519;1265;22541;-47
2024/01/31 06:11:59;;;;;;;34.80;17.70;;;;;;;-2.65;100.00;101866.90;109855;1275;22863;-47
2024/01/31 06:14:26;;;;;;;37.20;19.70;;;;;;;-2.56;100.00;101862.98;109732;1275;22277;-52
2024/01/31 06:16:54;;;;;;;45.60;20.50;;;;;;;-2.56;100.00;101864.71;109937;1272;22348;-47
2024/01/31 06:19:22;;;;;;;36.60;18.70;;;;;;;-2.57;100.00;101867.54;109611;1262;22863;-47
2024/01/31 06:21:49;;;;;;;35.40;18.00;;;;;;;-2.52;100.00;101858.67;109481;1275;23114;-47
2024/01/31 06:24:17;;;;;;;31.30;17.00;;;;;;;-2.42;100.00;101861.16;109566;1272;22423;-52
2024/01/31 06:26:46;;;;;;;36.10;18.20;;;;;;;-2.36;100.00;101864.15;109409;1280;23393;-47
2024/01/31 06:29:18;;;;;;;31.60;16.70;;;;;;;-2.30;100.00;101862.93;109282;1273;22924;-47
2024/01/31 06:31:56;;;;;;;30.70;17.20;;;;;;;-2.22;100.00;101851.96;108520;1274;22518;-51
2024/01/31 06:34:25;;;;;;;32.40;16.90;;;;;;;-2.16;100.00;101852.70;108815;1265;22527;-51
2024/01/31 06:36:53;;;;;;;34.50;18.40;;;;;;;-2.16;100.00;101853.89;109522;1264;22399;-51
2024/01/31 06:39:25;;;;;;;30.40;16.40;;;;;;;-2.18;100.00;101848.86;109541;1273;23056;-51
2024/01/31 06:41:53;;;;;;;31.10;16.30;;;;;;;-2.18;100.00;101848.85;108771;1274;22535;-52
2024/01/31 06:44:21;;;;;;;33.50;17.50;;;;;;;-2.18;100.00;101847.10;108756;1273;23291;-53
2024/01/31 06:46:51;;;;;;;31.20;16.90;;;;;;;-2.18;100.00;101841.31;108005;1273;23475;-51
2024/01/31 06:49:33;;;;;;;28.90;15.90;;;;;;;-2.17;100.00;101838.29;108582;1278;23061;-47
2024/01/31 06:52:12;;;;;;;34.20;17.80;;;;;;;-2.16;100.00;101834.77;109166;1265;22397;-53
2024/01/31 06:55:47;;;;;;;33.00;17.40;;;;;;;-2.14;100.00;101837.67;108863;1274;22806;-52
2024/01/31 07:24:44;;;;;;;33.50;18.40;;;;;;;-1.43;100.00;101853.73;109692;1274;22936;-48
2024/01/31 07:36:26;;;;;;;38.60;18.10;;;;;;;-0.99;100.00;101848.31;109200;1274;22554;-53
2024/01/31 07:43:27;;;;;;;38.10;19.70;;;;;;;-0.58;100.00;101846.75;109440;1259;22927;-52
2024/01/31 07:46:44;;;;;;;37.10;19.50;;;;;;;-0.43;100.00;101842.79;109631;1273;22515;-48
2024/01/31 07:50:56;;;;;;;34.30;19.50;;;;;;;-0.27;100.00;101840.46;108656;1272;22547;-47
2024/01/31 07:54:57;;;;;;;27.80;16.40;;;;;;;-0.10;100.00;101830.16;108670;1273;22530;-47
2024/01/31 07:58:33;;;;;;;38.90;21.50;;;;;;;-0.11;100.00;101829.70;109168;1272;23004;-53
2024/01/31 08:01:02;;;;;;;35.70;18.40;;;;;;;-0.16;100.00;101830.75;108399;1270;22723;-48
2024/01/31 08:03:34;;;;;;;37.50;20.10;;;;;;;-0.16;100.00;101824.59;109427;1270;23075;-53
2024/01/31 08:06:08;;;;;;;;;;;;;;;-0.14;100.00;101823.48;108531;1270;23299;-50
2024/01/31 08:09:46;;;;;;;36.40;19.60;;;;;;;-0.13;100.00;101819.98;110868;1272;21889;31
2024/01/31 08:13:57;;;;;;;38.20;19.10;;;;;;;-0.05;100.00;101815.16;109390;1272;23089;-52
2024/01/31 08:21:35;;;;;;;31.80;17.70;;;;;;;-0.03;100.00;101810.68;109421;1274;22400;-53
2024/01/31 08:28:37;;;;;;;36.80;19.20;;;;;;;0.10;100.00;101806.06;109448;1276;22929;-47
2024/01/31 08:31:23;;;;;;;35.20;19.70;;;;;;;0.15;100.00;101811.87;109444;1279;23631;-46
2024/01/31 08:33:58;;;;;;;34.20;18.80;;;;;;;0.18;100.00;101814.12;109326;1280;22167;-46
2024/01/31 08:36:28;;;;;;;49.50;22.80;;;;;;;0.20;100.00;101813.74;109400;1275;22500;-51
2024/01/31 08:38:57;;;;;;;37.90;20.60;;;;;;;0.20;100.00;101813.42;109416;1278;22404;-53
2024/01/31 08:41:28;;;;;;;33.00;19.60;;;;;;;0.21;100.00;101814.02;109749;1272;22415;-52
2024/01/31 08:44:05;;;;;;;35.20;20.40;;;;;;;0.22;100.00;101814.60;109629;1273;22445;-54
2024/01/31 08:46:44;;;;;;;34.20;19.30;;;;;;;0.23;100.00;101811.77;109458;1274;22498;-53
2024/01/31 08:49:30;;;;;;;41.60;22.40;;;;;;;0.24;100.00;101807.69;109697;1277;22384;-53
2024/01/31 08:51:58;;;;;;;42.10;21.60;;;;;;;0.27;100.00;101798.23;109806;1276;22365;-53
2024/01/31 08:54:30;;;;;;;36.60;20.10;;;;;;;0.31;100.00;101790.08;109737;1276;22484;-52
2024/01/31 08:56:58;;;;;;;33.60;18.90;;;;;;;0.34;100.00;101786.72;109764;1280;23080;-52
2024/01/31 08:59:26;;;;;;;38.60;20.90;;;;;;;0.37;100.00;101783.95;109753;1278;23173;-52
2024/01/31 09:01:54;;;;;;;38.00;21.30;;;;;;;0.38;100.00;101785.92;109766;1274;22313;-53
2024/01/31 09:04:21;;;;;;;36.80;19.10;;;;;;;0.41;100.00;101785.25;109724;1275;23055;-52
2024/01/31 09:06:50;;;;;;;35.30;21.40;;;;;;;0.46;100.00;101786.77;109446;1279;23322;-47
2024/01/31 09:09:18;;;;;;;31.00;18.20;;;;;;;0.54;100.00;101792.46;109315;1274;22774;-52
2024/01/31 09:11:46;;;;;;;35.50;19.00;;;;;;;0.65;100.00;101785.56;109541;1273;22379;-54
2024/01/31 09:14:15;;;;;;;33.10;19.60;;;;;;;0.73;100.00;101779.41;109380;1274;23491;-54
2024/01/31 09:16:43;;;;;;;32.00;19.10;;;;;;;0.82;100.00;101777.56;109577;1275;22494;-48
2024/01/31 09:19:11;;;;;;;39.90;20.50;;;;;;;0.94;100.00;101768.88;109560;1275;22734;-53
2024/01/31 09:21:39;;;;;;;36.00;21.50;;;;;;;1.11;100.00;101760.27;109633;1276;22330;-54
2024/01/31 09:24:09;;;;;;;37.20;20.80;;;;;;;1.24;100.00;101757.12;109616;1280;22444;-48
2024/01/31 09:26:39;;;;;;;28.50;16.90;;;;;;;1.37;100.00;101749.28;109440;1280;22476;-46
2024/01/31 09:29:07;;;;;;;31.00;18.70;;;;;;;1.54;100.00;101747.59;109514;1278;22314;-56
2024/01/31 09:31:34;;;;;;;38.20;19.90;;;;;;;1.76;100.00;101750.93;109588;1280;22162;-49
2024/01/31 09:34:02;;;;;;;34.10;19.30;;;;;;;1.90;100.00;101741.25;109625;1276;22857;-50
2024/01/31 09:36:31;;;;;;;34.50;19.80;;;;;;;1.96;100.00;101734.19;109459;1280;22769;-46
2024/01/31 09:39:07;;;;;;;32.10;19.80;;;;;;;1.99;100.00;101738.20;109549;1273;23570;-55
2024/01/31 09:41:42;;;;;;;31.00;18.80;;;;;;;2.05;100.00;101737.98;109508;1280;22458;-48
2024/01/31 09:44:10;;;;;;;31.30;19.10;;;;;;;2.16;100.00;101731.02;109568;1281;24675;-47
2024/01/31 09:46:40;;;;;;;41.90;19.00;;;;;;;2.29;100.00;101725.61;109612;1276;22810;-52
2024/01/31 09:49:13;;;;;;;30.90;17.50;;;;;;;2.43;100.00;101723.80;109461;1280;23634;-46
2024/01/31 09:51:40;;;;;;;27.10;16.50;;;;;;;2.58;100.00;101717.91;109768;1279;22351;-54
2024/01/31 09:54:10;;;;;;;34.00;20.30;;;;;;;2.81;100.00;101719.48;109636;1274;22331;-47
2024/01/31 09:56:37;;;;;;;30.30;18.20;;;;;;;3.03;100.00;101716.53;109658;1280;22823;-53
2024/01/31 09:59:05;;;;;;;30.70;17.80;;;;;;;3.22;100.00;101711.14;109453;1280;23271;-54
2024/01/31 10:01:33;;;;;;;26.90;16.10;;;;;;;3.35;99.68;101709.94;109570;1280;22386;-49
2024/01/31 10:04:01;;;;;;;28.00;15.50;;;;;;;3.43;97.90;101703.95;109438;1279;22993;-49
2024/01/31 10:06:29;;;;;;;24.90;15.30;;;;;;;3.48;97.28;101704.39;109282;1279;22422;-47
2024/01/31 10:08:59;;;;;;;25.50;15.70;;;;;;;3.63;97.49;101700.29;109255;1273;22395;-48
2024/01/31 10:33:28;;;;;;;23.30;14.00;;;;;;;4.46;90.08;101679.83;109705;1273;22466;-49
2024/01/31 10:37:27;;;;;;;32.80;17.70;;;;;;;4.45;89.87;101674.23;109856;1278;22987;-54
2024/01/31 10:41:02;;;;;;;27.90;14.90;;;;;;;4.49;90.00;101673.59;109847;1280;22544;-55
2024/01/31 10:48:08;;;;;;;23.70;13.70;;;;;;;4.64;89.04;101648.01;109485;1273;22396;-46
2024/01/31 10:59:25;;;;;;;21.00;11.80;;;;;;;4.80;83.12;101638.83;109640;1273;22337;-48
2024/01/31 11:03:19;;;;;;;19.10;10.70;;;;;;;4.84;82.14;101632.28;109646;1276;22416;-52
2024/01/31 11:07:06;;;;;;;18.80;11.10;;;;;;;4.82;79.30;101630.98;109575;1280;22411;-53
2024/01/31 11:10:36;;;;;;;18.40;10.90;;;;;;;4.72;78.06;101628.84;109237;1276;22201;-53
2024/01/31 11:14:21;;;;;;;20.10;12.10;;;;;;;4.76;78.56;101623.97;109531;1280;22550;-47
2024/01/31 11:17:17;;;;;;;21.30;13.00;;;;;;;4.86;78.08;101618.70;109432;1273;22192;-51
2024/01/31 11:20:01;;;;;;;25.50;14.30;;;;;;;4.90;77.58;101617.35;109289;1274;23486;-48
2024/01/31 11:22:53;;;;;;;21.30;14.40;;;;;;;4.91;76.78;101606.84;109440;1273;23099;-49
2024/01/31 11:26:30;;;;;;;22.90;14.10;;;;;;;4.90;76.36;101597.45;109426;1278;22551;-50
2024/01/31 11:37:12;;;;;;;14.60;9.60;;;;;;;4.98;74.62;101583.79;109642;1279;22342;-47
2024/01/31 11:40:40;;;;;;;18.20;11.00;;;;;;;5.03;73.36;101578.45;109667;1273;22336;-52
2024/01/31 11:43:21;;;;;;;12.70;9.00;;;;;;;5.04;73.26;101574.23;109495;1276;24465;-52
2024/01/31 11:46:07;;;;;;;12.50;8.60;;;;;;;5.09;73.09;101579.93;109460;1277;22287;-51
2024/01/31 11:48:35;;;;;;;17.80;10.80;;;;;;;5.14;73.23;101576.54;109618;1277;22342;-51
2024/01/31 11:51:04;;;;;;;18.20;10.50;;;;;;;5.23;73.65;101573.77;109593;1277;22190;-51
2024/01/31 11:53:33;;;;;;;16.90;10.50;;;;;;;5.32;73.28;101569.51;109654;1260;23068;-53
2024/01/31 11:56:01;;;;;;;22.20;10.80;;;;;;;5.39;72.41;101570.28;109575;1281;22546;-49
2024/01/31 11:58:29;;;;;;;15.80;9.90;;;;;;;5.38;71.72;101574.59;109642;1281;22385;-47
2024/01/31 12:00:57;;;;;;;15.70;10.30;;;;;;;5.33;72.50;101568.52;109584;1276;22698;-52
2024/01/31 12:03:25;;;;;;;18.00;10.30;;;;;;;5.28;72.92;101566.77;109419;1280;23181;-47
2024/01/31 12:05:58;;;;;;;20.50;11.20;;;;;;;5.25;73.28;101564.70;109535;1277;22843;-47
2024/01/31 12:08:31;;;;;;;17.80;11.30;;;;;;;5.21;73.94;101561.42;109591;1281;22487;-46
2024/01/31 12:10:59;;;;;;;16.30;10.80;;;;;;;5.19;74.68;101562.39;109429;1281;22211;-46
2024/01/31 12:13:27;;;;;;;19.10;12.20;;;;;;;5.17;74.83;101559.50;109348;1276;22350;-52
2024/01/31 12:15:55;;;;;;;19.70;11.60;;;;;;;5.12;75.74;101555.67;109518;1280;22895;-52
2024/01/31 12:18:24;;;;;;;20.70;11.50;;;;;;;5.08;76.28;101555.52;109540;1277;22413;-47
2024/01/31 12:21:02;;;;;;;20.20;11.30;;;;;;;5.04;77.07;101557.97;109458;1277;22231;-51
2024/01/31 12:23:33;;;;;;;21.40;12.70;;;;;;;4.99;77.54;101554.28;109490;1279;23272;-55
2024/01/31 12:26:13;;;;;;;23.60;13.50;;;;;;;4.95;78.29;101553.73;109234;1280;23087;-59
2024/01/31 12:28:54;;;;;;;22.30;11.90;;;;;;;4.88;78.20;101551.52;109465;1280;22426;-49
2024/01/31 12:31:22;;;;;;;17.70;11.70;;;;;;;4.76;78.73;101549.64;109491;1276;22397;-46
2024/01/31 12:33:53;;;;;;;22.60;13.20;;;;;;;4.67;79.14;101547.01;109601;1276;22309;-45
2024/01/31 12:36:21;;;;;;;19.40;12.00;;;;;;;4.61;79.54;101549.16;109534;1278;23592;-48
2024/01/31 12:38:49;;;;;;;20.80;12.90;;;;;;;4.56;79.56;101549.96;109271;1281;23101;-48
2024/01/31 12:41:23;;;;;;;20.40;11.70;;;;;;;4.52;80.05;101546.34;109469;1277;22344;-56
2024/01/31 12:43:51;;;;;;;18.60;12.40;;;;;;;4.49;80.16;101540.67;109624;1277;23041;-56
2024/01/31 12:46:20;;;;;;;17.10;11.10;;;;;;;4.45;80.48;101541.20;109780;1280;22236;-57
2024/01/31 12:48:47;;;;;;;19.00;11.90;;;;;;;4.42;80.70;101535.56;109785;1280;22333;-49
2024/01/31 12:51:15;;;;;;;18.50;11.90;;;;;;;4.41;80.95;101535.53;109732;1281;22863;-57
2024/01/31 12:53:43;;;;;;;20.30;10.90;;;;;;;4.40;81.83;101534.09;109743;1277;22480;-58
2024/01/31 12:56:16;;;;;;;16.60;10.60;;;;;;;4.39;81.87;101533.69;109626;1277;22661;-50
2024/01/31 12:58:44;;;;;;;22.20;11.50;;;;;;;4.37;81.84;101532.04;109744;1276;23217;-49
2024/01/31 13:01:12;;;;;;;21.30;11.70;;;;;;;4.35;81.96;101531.73;109748;1275;22463;-49
2024/01/31 13:03:40;;;;;;;17.90;11.40;;;;;;;4.31;82.25;101529.17;109804;1280;22204;-50
2024/01/31 13:06:09;;;;;;;17.10;11.20;;;;;;;4.27;82.38;101523.84;109773;1280;23068;-49
2024/01/31 13:08:40;;;;;;;17.60;11.00;;;;;;;4.26;82.37;101520.98;109758;1280;22935;-58
2024/01/31 13:11:12;;;;;;;20.50;11.40;;;;;;;4.24;82.53;101518.33;109627;1275;22214;-59
2024/01/31 13:13:40;;;;;;;24.70;15.50;;;;;;;4.22;82.75;101522.03;109583;1280;23086;-48
2024/01/31 13:16:08;;;;;;;38.70;22.70;;;;;;;4.21;82.88;101518.02;109473;1277;22906;-48
2024/01/31 13:18:36;;;;;;;28.70;16.90;;;;;;;4.22;83.24;101519.98;109682;1275;23134;-47
2024/01/31 13:21:04;;;;;;;25.60;15.30;;;;;;;4.24;83.77;101520.58;109688;1280;22262;-48
2024/01/31 13:23:34;;;;;;;19.70;13.20;;;;;;;4.25;83.77;101515.27;109542;1280;23500;-56
2024/01/31 13:26:02;;;;;;;21.80;12.90;;;;;;;4.26;83.81;101511.01;109613;1280;23041;-58
2024/01/31 13:28:30;;;;;;;22.70;13.50;;;;;;;4.27;84.29;101509.64;109679;1280;22193;-50
2024/01/31 13:30:58;;;;;;;20.10;13.00;;;;;;;4.25;84.39;101510.45;109725;1280;22638;-56
2024/01/31 13:33:25;;;;;;;20.50;12.80;;;;;;;4.24;84.63;101504.89;109720;1280;22155;-59
2024/01/31 13:35:53;;;;;;;21.60;13.60;;;;;;;4.25;85.17;101503.02;109722;1280;22333;-55
2024/01/31 13:38:22;;;;;;;17.90;12.50;;;;;;;4.25;85.14;101500.58;109775;1280;22193;-56
2024/01/31 13:40:50;;;;;;;23.00;14.60;;;;;;;4.23;84.86;101500.66;109846;1280;22269;-53
2024/01/31 13:43:17;;;;;;;23.70;14.50;;;;;;;4.21;85.46;101500.57;109777;1280;22419;-58
2024/01/31 13:45:45;;;;;;;23.10;13.50;;;;;;;4.20;85.82;101501.41;109886;1280;22403;-51
2024/01/31 13:48:12;;;;;;;21.10;12.50;;;;;;;4.20;86.03;101500.70;109682;1280;169185;-58
2024/01/31 13:50:40;;;;;;;25.40;15.00;;;;;;;4.19;86.31;101497.55;109858;1280;23001;-58
2024/01/31 13:53:08;;;;;;;23.80;13.00;;;;;;;4.17;86.56;101500.89;109964;1280;22320;-57
2024/01/31 13:55:36;;;;;;;22.40;13.80;;;;;;;4.15;87.01;101500.80;109903;1280;22347;-57
2024/01/31 13:58:03;;;;;;;21.60;13.10;;;;;;;4.14;87.32;101501.80;109920;1280;22947;-49
2024/01/31 14:00:31;;;;;;;17.10;12.00;;;;;;;4.14;87.31;101503.90;109920;1280;22269;-50
2024/01/31 14:02:59;;;;;;;20.20;12.80;;;;;;;4.16;87.48;101507.92;109929;1280;23073;-59
2024/01/31 14:05:27;;;;;;;21.30;14.20;;;;;;;4.16;87.75;101508.80;109964;1280;22257;-58
2024/01/31 14:07:54;;;;;;;18.80;12.80;;;;;;;4.15;87.57;101506.16;109976;1280;22174;-59
2024/01/31 14:10:22;;;;;;;19.90;11.40;;;;;;;4.14;87.77;101505.95;109951;1280;22211;-58
2024/01/31 14:12:49;;;;;;;19.10;10.60;;;;;;;4.11;88.03;101503.56;109964;1280;23321;-52
2024/01/31 14:15:17;;;;;;;18.80;11.40;;;;;;;4.07;88.28;101500.98;109905;1280;23341;-50
2024/01/31 14:17:45;;;;;;;20.50;12.90;;;;;;;4.04;88.41;101494.97;109915;1280;22271;-49
2024/01/31 14:20:12;;;;;;;21.60;12.60;;;;;;;4.02;88.45;101487.11;109990;1280;23017;-57
2024/01/31 14:22:40;;;;;;;18.00;11.20;;;;;;;3.98;88.53;101485.91;109907;1280;23149;-49
2024/01/31 14:25:28;;;;;;;20.20;12.50;;;;;;;3.94;88.63;101489.68;109944;1280;22974;-49
2024/01/31 14:27:55;;;;;;;20.80;11.90;;;;;;;3.90;89.04;101489.88;109915;1280;22286;-58
2024/01/31 14:30:23;;;;;;;24.90;12.90;;;;;;;3.87;89.17;101487.13;109915;1280;22998;-50
2024/01/31 14:32:50;;;;;;;25.50;14.30;;;;;;;3.83;89.22;101488.83;109926;1280;22283;-57
2024/01/31 14:35:18;;;;;;;25.10;12.60;;;;;;;3.79;89.82;101486.95;109940;1280;22579;-49
2024/01/31 14:37:46;;;;;;;21.40;13.50;;;;;;;3.78;89.94;101490.29;109976;1280;23267;-58
2024/01/31 14:40:13;;;;;;;17.80;11.60;;;;;;;3.73;90.37;101490.64;109962;1280;22740;-57
2024/01/31 14:42:41;;;;;;;20.60;13.30;;;;;;;3.69;90.56;101493.21;109925;1281;22400;-50
2024/01/31 14:45:09;;;;;;;19.70;12.30;;;;;;;3.65;90.75;101496.83;109859;1281;22392;-49
2024/01/31 14:47:37;;;;;;;22.80;13.90;;;;;;;3.61;90.94;101496.95;109861;1281;22265;-58
2024/01/31 14:50:05;;;;;;;22.20;15.00;;;;;;;3.58;91.13;101497.65;109782;1281;22283;-57
2024/01/31 14:52:34;;;;;;;29.10;16.60;;;;;;;3.55;91.69;101503.89;109880;1281;22982;-49
2024/01/31 14:55:03;;;;;;;27.00;16.60;;;;;;;3.52;91.56;101507.55;109877;1281;22263;-57
2024/01/31 14:57:31;;;;;;;34.90;20.90;;;;;;;3.48;91.81;101505.99;109904;1281;22824;-57
2024/01/31 14:59:59;;;;;;;26.50;16.60;;;;;;;3.44;91.97;101512.37;109862;1281;24154;-50
2024/01/31 15:02:27;;;;;;;27.20;16.30;;;;;;;3.40;92.08;101510.45;109893;1281;22733;-51
2024/01/31 15:04:55;;;;;;;22.30;14.40;;;;;;;3.37;92.16;101504.77;109901;1281;22266;-50
2024/01/31 15:07:22;;;;;;;24.40;14.60;;;;;;;3.33;92.38;101506.66;109889;1281;22262;-50
2024/01/31 15:09:52;;;;;;;22.80;14.80;;;;;;;3.29;92.41;101503.36;109882;1281;22203;-50
2024/01/31 15:12:21;;;;;;;28.80;17.00;;;;;;;3.26;92.86;101504.75;109872;1282;22268;-49
2024/01/31 15:14:49;;;;;;;30.10;18.60;;;;;;;3.24;92.88;101507.55;109893;1281;22276;-49
2024/01/31 15:17:17;;;;;;;26.10;16.30;;;;;;;3.21;93.25;101506.60;109897;1281;23015;-56
2024/01/31 15:19:48;;;;;;;24.20;14.20;;;;;;;3.19;93.18;101509.95;109887;1281;22975;-57
2024/01/31 15:22:16;;;;;;;30.60;14.80;;;;;;;3.14;93.36;101510.77;109921;1281;22265;-49
